| time (UTC) | temp F | wind direction | speed MPH | gust MPH | rain 1hr in | rain 24hr in | rain mn in | humidity % | barometer mb |
| 20260504044544 | 55 | 0 | 0.0 | 1.0 | 0.00 | 0.00 | 0.00 | 87 | 1018.6 |
| 20260504043047 | 56 | 0 | 0.0 | 0.0 | 0.00 | 0.00 | 0.00 | 87 | 1018.6 |
| 20260504041541 | 56 | 0 | 0.0 | 0.0 | 0.00 | 0.00 | 0.00 | 85 | 1018.7 |
| 20260504040041 | 57 | 0 | 0.0 | 0.0 | 0.00 | 0.00 | 0.00 | 84 | 1018.8 |
| 20260504034547 | 57 | 0 | 0.0 | 0.0 | 0.00 | 0.00 | 0.00 | 83 | 1018.6 |
| 20260504033048 | 58 | 0 | 0.0 | 0.0 | 0.00 | 0.00 | 0.00 | 81 | 1018.7 |
| 20260504031554 | 58 | 0 | 0.0 | 1.0 | 0.00 | 0.00 | 0.00 | 79 | 1018.7 |
| 20260504030045 | 58 | 107 | 1.0 | 2.0 | 0.00 | 0.00 | 0.00 | 78 | 1018.8 |
| 20260504024539 | 59 | 0 | 0.0 | 0.0 | 0.00 | 0.00 | 0.00 | 77 | 1018.4 |
| 20260504023045 | 60 | 0 | 0.0 | 0.0 | 0.00 | 0.00 | 0.00 | 75 | 1018.2 |
| 20260504021546 | 60 | 0 | 0.0 | 0.0 | 0.00 | 0.00 | 0.00 | 71 | 1018.0 |
| 20260504020055 | 62 | 0 | 0.0 | 0.0 | 0.00 | 0.00 | 0.00 | 69 | 1018.0 |
| 20260504014545 | 62 | 0 | 0.0 | 0.0 | 0.00 | 0.00 | 0.00 | 66 | 1017.9 |
| 20260504013043 | 63 | 0 | 0.0 | 0.0 | 0.00 | 0.00 | 0.00 | 64 | 1017.8 |
| 20260504011541 | 63 | 0 | 0.0 | 0.0 | 0.00 | 0.00 | 0.00 | 62 | 1017.6 |
| 20260504010050 | 64 | 0 | 0.0 | 0.0 | 0.00 | 0.00 | 0.00 | 58 | 1017.8 |
| 20260504004546 | 66 | 0 | 0.0 | 0.0 | 0.00 | 0.00 | 0.00 | 54 | 1017.6 |
| 20260504003044 | 68 | 0 | 0.0 | 0.0 | 0.00 | 0.00 | 0.00 | 51 | 1017.5 |
| 20260504001550 | 69 | 161 | 0.0 | 0.0 | 0.00 | 0.00 | 0.00 | 50 | 1017.2 |
| 20260504000043 | 70 | 231 | 0.0 | 3.0 | 0.00 | 0.00 | 0.00 | 48 | 1017.2 |
| 20260503234603 | 72 | 214 | 0.0 | 2.0 | 0.00 | 0.00 | 0.00 | 44 | 1017.2 |
| 20260503233050 | 71 | 139 | 0.0 | 2.0 | 0.00 | 0.00 | 0.00 | 46 | 1017.2 |
| 20260503231545 | 71 | 0 | 0.0 | 2.0 | 0.00 | 0.00 | 0.00 | 48 | 1017.3 |
| 20260503230043 | 71 | 229 | 1.0 | 4.0 | 0.00 | 0.00 | 0.00 | 44 | 1017.4 |
| 20260503224540 | 72 | 254 | 1.0 | 4.0 | 0.00 | 0.00 | 0.00 | 43 | 1017.4 |
| 20260503223039 | 72 | 216 | 1.0 | 5.0 | 0.00 | 0.00 | 0.00 | 42 | 1017.6 |
| 20260503221556 | 73 | 131 | 1.0 | 4.0 | 0.00 | 0.00 | 0.00 | 41 | 1017.6 |
| 20260503220046 | 74 | 238 | 1.0 | 4.0 | 0.00 | 0.00 | 0.00 | 42 | 1017.8 |
| 20260503214542 | 75 | 160 | 1.0 | 4.0 | 0.00 | 0.00 | 0.00 | 40 | 1017.8 |
| 20260503213044 | 75 | 275 | 1.0 | 6.0 | 0.00 | 0.00 | 0.00 | 39 | 1017.9 |
| 20260503211539 | 75 | 39 | 1.0 | 5.0 | 0.00 | 0.00 | 0.00 | 41 | 1018.0 |
| 20260503210047 | 75 | 40 | 2.0 | 4.0 | 0.00 | 0.00 | 0.00 | 38 | 1018.2 |
| 20260503204546 | 75 | 86 | 1.0 | 7.0 | 0.00 | 0.00 | 0.00 | 39 | 1018.4 |
| 20260503203054 | 75 | 56 | 2.0 | 9.0 | 0.00 | 0.00 | 0.00 | 40 | 1018.6 |
| 20260503201543 | 76 | 82 | 2.0 | 5.0 | 0.00 | 0.00 | 0.00 | 37 | 1018.7 |
| 20260503200040 | 76 | 99 | 2.0 | 6.0 | 0.00 | 0.00 | 0.00 | 37 | 1019.2 |
| 20260503194555 | 76 | 105 | 2.0 | 4.0 | 0.00 | 0.00 | 0.00 | 37 | 1019.5 |
| 20260503193046 | 76 | 84 | 1.0 | 5.0 | 0.00 | 0.00 | 0.00 | 37 | 1019.7 |
| 20260503191547 | 76 | 49 | 1.0 | 5.0 | 0.00 | 0.00 | 0.00 | 37 | 1020.0 |
| 20260503190043 | 76 | 13 | 2.0 | 5.0 | 0.00 | 0.00 | 0.00 | 37 | 1020.0 |
| 20260503184540 | 75 | 80 | 2.0 | 5.0 | 0.00 | 0.00 | 0.00 | 36 | 1020.2 |
| 20260503183049 | 76 | 48 | 2.0 | 5.0 | 0.00 | 0.00 | 0.00 | 36 | 1020.5 |
| 20260503181544 | 75 | 104 | 1.0 | 4.0 | 0.00 | 0.00 | 0.00 | 31 | 1020.7 |
| 20260503180056 | 76 | 262 | 2.0 | 5.0 | 0.00 | 0.00 | 0.00 | 34 | 1020.9 |
| 20260503174540 | 75 | 29 | 2.0 | 6.0 | 0.00 | 0.00 | 0.00 | 35 | 1021.1 |
| 20260503173044 | 75 | 221 | 2.0 | 6.0 | 0.00 | 0.00 | 0.00 | 33 | 1021.4 |
| 20260503171549 | 75 | 252 | 2.0 | 8.0 | 0.00 | 0.00 | 0.00 | 36 | 1021.6 |
| 20260503081538 | 47 | 0 | 0.0 | 0.0 | 0.00 | 0.05 | 0.00 | 94 | 1019.3 |
| 20260503071601 | 48 | 0 | 0.0 | 0.0 | 0.00 | 0.13 | 0.00 | 93 | 1019.2 |